createdAt,value
2022-09-15T00:00:58.503Z,27.88
2022-09-15T00:03:25.105Z,27.87
2022-09-15T00:05:53.595Z,27.86
2022-09-15T00:08:20.825Z,27.85
2022-09-15T00:10:56.345Z,27.85
2022-09-15T00:13:23.324Z,27.83
2022-09-15T00:15:50.446Z,27.83
2022-09-15T00:18:17.391Z,27.82
2022-09-15T00:20:45.323Z,27.83
2022-09-15T00:23:13.905Z,27.81
2022-09-15T00:25:45.909Z,27.81
2022-09-15T00:28:14.331Z,27.82
2022-09-15T00:30:50.053Z,27.80
2022-09-15T00:33:17.430Z,27.80
2022-09-15T00:35:45.431Z,27.79
2022-09-15T00:38:13.672Z,27.78
2022-09-15T00:40:59.843Z,27.78
2022-09-15T00:44:04.137Z,27.77
2022-09-15T00:46:30.536Z,27.75
2022-09-15T00:49:03.239Z,27.77
2022-09-15T00:51:39.101Z,27.77
2022-09-15T00:54:10.471Z,27.74
2022-09-15T00:56:41.600Z,27.74
2022-09-15T00:59:12.239Z,27.75
2022-09-15T01:01:40.531Z,27.73
2022-09-15T01:04:07.172Z,27.73
2022-09-15T01:06:37.359Z,27.74
2022-09-15T01:09:23.952Z,27.72
2022-09-15T01:11:50.939Z,27.71
2022-09-15T01:14:17.521Z,27.69
2022-09-15T01:16:47.087Z,27.69
2022-09-15T01:19:51.539Z,27.70
2022-09-15T01:22:21.115Z,27.67
2022-09-15T01:25:12.198Z,27.67
2022-09-15T01:27:56.261Z,27.68
2022-09-15T01:30:24.372Z,27.67
2022-09-15T01:33:12.575Z,27.66
2022-09-15T01:35:51.713Z,27.66
2022-09-15T01:38:34.949Z,27.65
2022-09-15T01:41:13.565Z,27.64
2022-09-15T01:43:49.698Z,27.64
2022-09-15T01:46:19.597Z,27.64
2022-09-15T01:48:49.420Z,27.64
2022-09-15T01:51:16.808Z,27.63
2022-09-15T01:53:44.928Z,27.63
2022-09-15T01:56:12.567Z,27.61
2022-09-15T01:58:40.751Z,27.60
2022-09-15T02:01:18.933Z,27.60
2022-09-15T02:03:51.604Z,27.60
2022-09-15T02:06:35.682Z,27.58
2022-09-15T02:09:13.895Z,27.58
2022-09-15T02:12:19.632Z,27.57
2022-09-15T02:15:10.459Z,27.56
2022-09-15T02:17:45.589Z,27.57
2022-09-15T02:20:39.116Z,27.55
2022-09-15T02:23:13.827Z,27.56
2022-09-15T02:25:51.642Z,27.54
2022-09-15T02:28:23.911Z,27.54
2022-09-15T02:30:54.243Z,27.53
2022-09-15T02:33:24.238Z,27.52
2022-09-15T02:35:52.211Z,27.53
2022-09-15T02:38:18.701Z,27.52
2022-09-15T02:40:45.261Z,27.52
2022-09-15T02:43:14.765Z,27.51
2022-09-15T02:45:41.720Z,27.51
2022-09-15T02:48:11.728Z,27.51
2022-09-15T02:50:38.933Z,27.49
2022-09-15T02:53:05.746Z,27.49
2022-09-15T02:55:32.377Z,27.50
2022-09-15T02:57:59.674Z,27.48
2022-09-15T03:00:28.353Z,27.48
2022-09-15T03:02:56.113Z,27.48
2022-09-15T03:05:26.007Z,27.46
2022-09-15T03:07:53.564Z,27.47
2022-09-15T03:10:21.175Z,27.48
2022-09-15T03:12:50.106Z,27.44
2022-09-15T03:15:19.284Z,27.46
2022-09-15T03:17:47.268Z,27.43
2022-09-15T03:20:20.141Z,27.44
2022-09-15T03:22:47.595Z,27.44
2022-09-15T03:25:14.336Z,27.43
2022-09-15T03:27:40.828Z,27.44
2022-09-15T03:30:08.678Z,27.41
2022-09-15T03:32:35.358Z,27.41
2022-09-15T03:35:02.251Z,27.40
2022-09-15T03:37:28.763Z,27.40
2022-09-15T03:39:56.116Z,27.40
2022-09-15T03:42:22.753Z,27.39
2022-09-15T03:44:49.202Z,27.40
2022-09-15T03:47:15.773Z,27.40
2022-09-15T03:49:42.346Z,27.39
2022-09-15T03:52:08.823Z,27.39
2022-09-15T03:54:35.644Z,27.38
2022-09-15T03:57:03.493Z,27.38
2022-09-15T03:59:30.136Z,27.36
2022-09-15T04:01:56.661Z,27.36
2022-09-15T04:04:23.220Z,27.36
2022-09-15T04:06:49.665Z,27.36
2022-09-15T04:09:16.210Z,27.36
2022-09-15T04:11:42.816Z,27.35
2022-09-15T04:14:09.375Z,27.35
2022-09-15T04:16:35.933Z,27.33
2022-09-15T04:19:02.430Z,27.33
2022-09-15T04:21:30.104Z,27.32
2022-09-15T04:23:56.610Z,27.33
2022-09-15T04:26:23.020Z,27.31
2022-09-15T04:28:49.548Z,27.32
2022-09-15T04:31:17.597Z,27.32
2022-09-15T04:33:45.332Z,27.32
2022-09-15T04:36:24.212Z,27.31
2022-09-15T04:38:51.769Z,27.31
2022-09-15T04:41:19.080Z,27.30
2022-09-15T04:43:45.964Z,27.30
2022-09-15T04:46:14.066Z,27.30
2022-09-15T04:48:41.123Z,27.30
2022-09-15T04:51:11.732Z,27.28
2022-09-15T04:53:38.300Z,27.29
2022-09-15T04:56:09.158Z,27.28
2022-09-15T04:58:41.182Z,27.27
2022-09-15T05:01:16.483Z,27.27
2022-09-15T05:03:44.151Z,27.26
2022-09-15T05:06:13.320Z,27.27
2022-09-15T05:08:40.007Z,27.27
2022-09-15T05:11:12.156Z,27.27
2022-09-15T05:13:40.057Z,27.26
2022-09-15T05:16:13.224Z,27.26
2022-09-15T05:18:41.335Z,27.26
2022-09-15T05:21:10.034Z,27.26
2022-09-15T05:23:37.344Z,27.24
2022-09-15T05:26:06.714Z,27.23
2022-09-15T05:28:35.766Z,27.24
2022-09-15T05:31:07.013Z,27.23
2022-09-15T05:33:34.807Z,27.24
2022-09-15T05:36:01.518Z,27.24
2022-09-15T05:38:32.338Z,27.21
2022-09-15T05:41:10.297Z,27.22
2022-09-15T05:43:37.975Z,27.21
2022-09-15T05:46:05.476Z,27.21
2022-09-15T05:48:32.000Z,27.21
2022-09-15T05:50:58.556Z,27.20
2022-09-15T05:53:26.266Z,27.21
2022-09-15T05:56:00.183Z,27.21
2022-09-15T05:58:27.563Z,27.20
2022-09-15T06:00:54.705Z,27.21
2022-09-15T06:03:23.281Z,27.20
2022-09-15T06:05:59.460Z,27.20
2022-09-15T06:08:29.833Z,27.18
2022-09-15T06:11:01.646Z,27.17
2022-09-15T06:13:28.082Z,27.17
2022-09-15T06:15:54.680Z,27.19
2022-09-15T06:18:21.202Z,27.17
2022-09-15T06:20:47.889Z,27.17
2022-09-15T06:23:14.324Z,27.16
2022-09-15T06:25:40.890Z,27.17
2022-09-15T06:28:07.323Z,27.15
2022-09-15T06:30:33.796Z,27.15
2022-09-15T06:33:00.265Z,27.16
2022-09-15T06:35:26.705Z,27.13
2022-09-15T06:37:53.243Z,27.15
2022-09-15T06:40:19.782Z,27.15
2022-09-15T06:42:46.348Z,27.14
2022-09-15T06:45:12.928Z,27.13
2022-09-15T06:47:39.388Z,27.12
2022-09-15T06:50:06.897Z,27.11
2022-09-15T06:52:33.672Z,27.11
2022-09-15T06:55:00.375Z,27.12
2022-09-15T06:57:26.914Z,27.11
2022-09-15T06:59:53.703Z,27.14
2022-09-15T07:02:20.209Z,27.12
2022-09-15T07:04:46.732Z,27.11
2022-09-15T07:07:13.171Z,27.11
2022-09-15T07:09:41.335Z,27.10
2022-09-15T07:12:08.203Z,27.10
2022-09-15T07:14:34.632Z,27.09
2022-09-15T07:17:01.162Z,27.10
2022-09-15T07:19:27.671Z,27.08
2022-09-15T07:21:54.151Z,27.09
2022-09-15T07:24:20.677Z,27.09
2022-09-15T07:26:47.154Z,27.08
2022-09-15T07:29:13.842Z,27.08
2022-09-15T07:31:40.655Z,27.09
2022-09-15T07:34:08.035Z,27.08
2022-09-15T07:36:34.756Z,27.08
2022-09-15T07:39:03.629Z,27.08
2022-09-15T07:41:31.628Z,27.07
2022-09-15T07:44:00.375Z,27.07
2022-09-15T07:46:30.101Z,27.06
2022-09-15T07:48:56.707Z,27.06
2022-09-15T07:51:23.923Z,27.06
2022-09-15T07:53:51.429Z,27.07
2022-09-15T07:56:18.486Z,27.06
2022-09-15T07:58:46.080Z,27.06
2022-09-15T08:01:14.846Z,27.06
2022-09-15T08:03:52.083Z,27.05
2022-09-15T08:06:23.008Z,27.06
2022-09-15T08:08:52.284Z,27.05
2022-09-15T08:11:21.087Z,27.04
2022-09-15T08:13:49.723Z,27.05
2022-09-15T08:16:19.457Z,27.05
2022-09-15T08:18:46.758Z,27.05
2022-09-15T08:21:16.323Z,27.05
2022-09-15T08:23:43.289Z,27.04
2022-09-15T08:26:14.279Z,27.04
2022-09-15T08:28:41.628Z,27.04
2022-09-15T08:31:11.461Z,27.03
2022-09-15T08:33:41.966Z,27.04
2022-09-15T08:36:12.060Z,27.03
2022-09-15T08:38:40.627Z,27.03
2022-09-15T08:41:30.990Z,27.03
2022-09-15T08:43:57.293Z,27.01
2022-09-15T08:46:29.268Z,27.01
2022-09-15T08:49:50.059Z,27.02
2022-09-15T08:52:23.255Z,27.01
2022-09-15T08:54:53.209Z,27.02
2022-09-15T08:57:23.493Z,27.02
2022-09-15T08:59:49.889Z,27.01
2022-09-15T09:02:33.580Z,27.01
2022-09-15T09:05:29.302Z,27.01
2022-09-15T09:08:18.661Z,27.04
2022-09-15T09:11:14.826Z,27.01
2022-09-15T09:13:59.095Z,27.02
2022-09-15T09:16:30.678Z,27.01
2022-09-15T09:18:57.051Z,27.01
2022-09-15T09:21:35.271Z,27.01
2022-09-15T09:24:13.327Z,27.02
2022-09-15T09:26:40.238Z,27.02
2022-09-15T09:29:16.384Z,27.02
2022-09-15T09:31:45.904Z,27.03
2022-09-15T09:34:27.596Z,27.02
2022-09-15T09:36:59.035Z,27.03
2022-09-15T09:39:27.759Z,27.02
2022-09-15T09:41:55.160Z,27.05
2022-09-15T09:44:31.639Z,27.04
2022-09-15T09:46:59.690Z,27.05
2022-09-15T09:49:39.949Z,27.05
2022-09-15T09:52:06.348Z,27.05
2022-09-15T09:54:34.166Z,27.06
2022-09-15T09:57:13.011Z,27.06
2022-09-15T09:59:45.278Z,27.08
2022-09-15T10:02:11.659Z,27.08
2022-09-15T10:04:40.298Z,27.08
2022-09-15T10:07:07.638Z,27.08
2022-09-15T10:09:34.482Z,27.08
2022-09-15T10:12:03.793Z,27.10
2022-09-15T10:14:32.035Z,27.11
2022-09-15T10:17:17.156Z,27.11
2022-09-15T10:19:54.124Z,27.12
2022-09-15T10:22:25.542Z,27.15
2022-09-15T10:24:52.021Z,27.14
2022-09-15T10:27:18.518Z,27.14
2022-09-15T10:29:45.345Z,27.15
2022-09-15T10:32:29.906Z,27.15
2022-09-15T10:35:18.147Z,27.16
2022-09-15T10:38:12.082Z,27.16
2022-09-15T10:40:51.073Z,27.18
2022-09-15T10:43:44.932Z,27.18
2022-09-15T10:46:25.839Z,27.18
2022-09-15T10:49:12.554Z,27.19
2022-09-15T10:52:13.686Z,27.20
2022-09-15T10:54:48.608Z,27.22
2022-09-15T10:57:38.276Z,27.22
2022-09-15T11:00:25.696Z,27.24
2022-09-15T11:02:55.333Z,27.24
2022-09-15T11:05:33.593Z,27.25
2022-09-15T11:08:19.119Z,27.25
2022-09-15T11:10:51.805Z,27.24
2022-09-15T11:13:27.586Z,27.25
2022-09-15T11:16:12.444Z,27.24
2022-09-15T11:19:00.949Z,27.24
2022-09-15T11:21:47.512Z,27.24
2022-09-15T11:25:02.054Z,27.25
2022-09-15T11:27:36.143Z,27.24
2022-09-15T11:30:20.713Z,27.25
2022-09-15T11:32:57.995Z,27.26
2022-09-15T11:35:31.204Z,27.25
2022-09-15T11:38:18.172Z,27.25
2022-09-15T11:41:22.409Z,27.25
2022-09-15T11:44:16.653Z,27.26
2022-09-15T11:47:01.610Z,27.25
2022-09-15T11:49:45.414Z,27.26
2022-09-15T11:52:33.473Z,27.26
2022-09-15T11:55:22.581Z,27.26
2022-09-15T11:57:52.780Z,27.26
2022-09-15T12:00:20.436Z,27.26
2022-09-15T12:03:13.433Z,27.27
2022-09-15T12:05:48.571Z,27.27
2022-09-15T12:08:24.229Z,27.27
2022-09-15T12:10:54.552Z,27.28
2022-09-15T12:13:22.563Z,27.28
2022-09-15T12:15:50.531Z,27.29
2022-09-15T12:18:38.434Z,27.28
2022-09-15T12:21:13.253Z,27.28
2022-09-15T12:23:59.928Z,27.29
2022-09-15T12:26:27.638Z,27.29
2022-09-15T12:28:57.473Z,27.30
2022-09-15T12:31:34.473Z,27.30
2022-09-15T12:34:30.345Z,27.31
2022-09-15T12:37:18.176Z,27.31
2022-09-15T12:39:47.123Z,27.31
2022-09-15T12:42:15.960Z,27.32
2022-09-15T12:44:42.360Z,27.32
2022-09-15T12:47:23.474Z,27.33
2022-09-15T12:49:52.805Z,27.34
2022-09-15T12:52:21.594Z,27.34
2022-09-15T12:54:57.704Z,27.35
2022-09-15T12:57:34.132Z,27.35
2022-09-15T13:00:27.583Z,27.35
2022-09-15T13:02:55.599Z,27.36
2022-09-15T13:05:51.078Z,27.37
2022-09-15T13:08:29.439Z,27.36
2022-09-15T13:11:02.649Z,27.37
2022-09-15T13:13:38.421Z,27.38
2022-09-15T13:16:12.193Z,27.36
2022-09-15T13:18:42.074Z,27.38
2022-09-15T13:21:14.362Z,27.39
2022-09-15T13:23:44.833Z,27.39
2022-09-15T13:26:17.899Z,27.39
2022-09-15T13:28:47.185Z,27.40
2022-09-15T13:31:26.724Z,27.40
2022-09-15T13:40:48.016Z,27.40
2022-09-15T13:43:32.219Z,27.40
2022-09-15T13:46:13.793Z,27.40
2022-09-15T13:49:28.304Z,27.40
2022-09-15T13:52:15.926Z,27.41
2022-09-15T13:55:24.153Z,27.41
2022-09-15T14:00:56.043Z,27.40
2022-09-15T14:03:44.697Z,27.40
2022-09-15T14:06:36.760Z,27.40
2022-09-15T14:09:09.335Z,27.41
2022-09-15T14:11:37.714Z,27.41
2022-09-15T14:14:09.752Z,27.41
2022-09-15T14:16:37.834Z,27.41
2022-09-15T14:19:21.621Z,27.41
2022-09-15T14:21:53.797Z,27.42
2022-09-15T14:24:27.921Z,27.40
2022-09-15T14:26:54.960Z,27.42
2022-09-15T14:29:24.940Z,27.41
2022-09-15T14:31:52.878Z,27.41
2022-09-15T14:34:26.105Z,27.42
2022-09-15T14:37:04.361Z,27.42
2022-09-15T14:39:31.302Z,27.43
2022-09-15T14:47:28.352Z,27.42
2022-09-15T14:50:20.893Z,27.42
2022-09-15T14:52:51.888Z,27.42
2022-09-15T14:55:28.161Z,27.41
2022-09-15T14:57:59.002Z,27.42
2022-09-15T15:00:29.992Z,27.42
2022-09-15T15:03:29.878Z,27.42
2022-09-15T15:06:02.555Z,27.41
2022-09-15T15:08:45.463Z,27.41
2022-09-15T15:11:15.056Z,27.42
2022-09-15T15:13:44.016Z,27.41
2022-09-15T15:16:25.079Z,27.40
2022-09-15T15:18:53.238Z,27.41
2022-09-15T15:21:48.173Z,27.40
2022-09-15T15:24:14.890Z,27.40
2022-09-15T15:26:43.023Z,27.41
2022-09-15T15:29:40.559Z,27.39
2022-09-15T15:32:13.126Z,27.40
2022-09-15T15:34:40.098Z,27.39
2022-09-15T15:37:25.664Z,27.40
2022-09-15T15:39:53.141Z,27.40
2022-09-15T15:42:20.716Z,27.40
2022-09-15T15:45:21.783Z,27.40
2022-09-15T15:47:48.828Z,27.40
2022-09-15T15:50:21.196Z,27.41
2022-09-15T15:52:51.555Z,27.40
2022-09-15T15:55:24.439Z,27.40
2022-09-15T15:57:55.507Z,27.39
2022-09-15T16:00:31.954Z,27.40
2022-09-15T16:02:58.470Z,27.40
2022-09-15T16:05:27.646Z,27.39
2022-09-15T16:07:56.647Z,27.39
2022-09-15T16:10:28.126Z,27.38
2022-09-15T16:12:54.581Z,27.39
2022-09-15T16:15:21.462Z,27.38
2022-09-15T16:17:48.729Z,27.39
2022-09-15T16:20:16.321Z,27.38
2022-09-15T16:22:43.721Z,27.37
2022-09-15T16:25:22.744Z,27.38
2022-09-15T16:27:49.813Z,27.38
2022-09-15T16:30:16.276Z,27.36
2022-09-15T16:32:42.878Z,27.37
2022-09-15T16:35:26.447Z,27.36
2022-09-15T16:37:52.958Z,27.36
2022-09-15T16:40:19.564Z,27.36
2022-09-15T16:42:48.009Z,27.35
2022-09-15T16:45:25.040Z,27.36
2022-09-15T16:47:51.571Z,27.35
2022-09-15T16:50:18.170Z,27.35
2022-09-15T16:52:44.776Z,27.36
2022-09-15T16:55:33.275Z,27.35
2022-09-15T16:58:00.081Z,27.34
2022-09-15T17:00:31.878Z,27.34
2022-09-15T17:02:59.592Z,27.33
2022-09-15T17:05:37.796Z,27.34
2022-09-15T17:08:05.969Z,27.33
2022-09-15T17:10:33.467Z,27.32
2022-09-15T17:13:00.827Z,27.32
2022-09-15T17:15:34.171Z,27.33
2022-09-15T17:18:01.942Z,27.31
2022-09-15T17:20:28.656Z,27.30
2022-09-15T17:22:55.454Z,27.31
2022-09-15T17:25:35.715Z,27.31
2022-09-15T17:28:02.753Z,27.31
2022-09-15T17:30:31.460Z,27.31
2022-09-15T17:33:12.105Z,27.29
2022-09-15T17:35:38.902Z,27.29
2022-09-15T17:38:06.450Z,27.29
2022-09-15T17:40:34.842Z,27.31
2022-09-15T17:43:01.976Z,27.29
2022-09-15T17:45:33.010Z,27.29
2022-09-15T17:47:59.860Z,27.29
2022-09-15T17:50:29.771Z,27.28
2022-09-15T17:52:57.033Z,27.28
2022-09-15T17:55:33.854Z,27.27
2022-09-15T17:58:01.934Z,27.27
2022-09-15T18:00:33.222Z,27.26
2022-09-15T18:03:03.679Z,27.26
2022-09-15T18:05:33.326Z,27.26
2022-09-15T18:08:03.136Z,27.25
2022-09-15T18:10:32.210Z,27.24
2022-09-15T18:12:59.434Z,27.24
2022-09-15T18:15:29.201Z,27.22
2022-09-15T18:17:58.561Z,27.23
2022-09-15T18:20:27.939Z,27.23
2022-09-15T18:22:55.346Z,27.22
2022-09-15T18:25:25.488Z,27.20
2022-09-15T18:27:52.267Z,27.20
2022-09-15T18:30:19.691Z,27.20
2022-09-15T18:32:46.414Z,27.19
2022-09-15T18:35:18.403Z,27.20
2022-09-15T18:37:50.020Z,27.20
2022-09-15T18:40:18.457Z,27.18
2022-09-15T18:42:46.170Z,27.18
2022-09-15T18:45:15.691Z,27.18
2022-09-15T18:47:42.858Z,27.16
2022-09-15T18:50:11.870Z,27.16
2022-09-15T18:52:39.947Z,27.16
2022-09-15T18:55:09.158Z,27.16
2022-09-15T18:57:37.230Z,27.16
2022-09-15T19:00:10.549Z,27.13
2022-09-15T19:02:37.238Z,27.14
2022-09-15T19:05:04.327Z,27.13
2022-09-15T19:07:30.865Z,27.13
2022-09-15T19:09:57.969Z,27.13
2022-09-15T19:12:24.899Z,27.13
2022-09-15T19:14:51.389Z,27.13
2022-09-15T19:17:18.108Z,27.11
2022-09-15T19:19:46.345Z,27.09
2022-09-15T19:22:13.178Z,27.09
2022-09-15T19:24:39.628Z,27.08
2022-09-15T19:27:07.803Z,27.08
2022-09-15T19:29:36.484Z,27.06
2022-09-15T19:32:05.280Z,27.07
2022-09-15T19:34:32.270Z,27.07
2022-09-15T19:36:58.779Z,27.06
2022-09-15T19:39:25.410Z,27.04
2022-09-15T19:41:52.246Z,27.05
2022-09-15T19:44:18.870Z,27.05
2022-09-15T19:46:45.808Z,27.05
2022-09-15T19:49:12.929Z,27.05
2022-09-15T19:51:39.540Z,27.05
2022-09-15T19:54:06.999Z,27.04
2022-09-15T19:56:35.053Z,27.03
2022-09-15T19:59:04.075Z,27.03
2022-09-15T20:01:32.680Z,27.03
2022-09-15T20:04:01.904Z,27.02
2022-09-15T20:06:32.537Z,27.00
2022-09-15T20:08:59.475Z,27.01
2022-09-15T20:11:27.585Z,27.01
2022-09-15T20:13:55.040Z,27.00
2022-09-15T20:16:23.050Z,26.99
2022-09-15T20:18:51.741Z,26.99
2022-09-15T20:21:46.253Z,26.99
2022-09-15T20:24:13.793Z,26.96
2022-09-15T20:26:40.693Z,26.95
2022-09-15T20:29:07.682Z,26.96
2022-09-15T20:31:34.548Z,26.97
2022-09-15T20:34:02.277Z,26.97
2022-09-15T20:36:36.019Z,26.95
2022-09-15T20:39:05.211Z,26.95
2022-09-15T20:41:34.370Z,26.95
2022-09-15T20:44:01.196Z,26.95
2022-09-15T20:46:31.426Z,26.93
2022-09-15T20:48:57.821Z,26.94
2022-09-15T20:51:26.776Z,26.91
2022-09-15T20:53:55.194Z,26.91
2022-09-15T20:56:25.561Z,26.90
2022-09-15T20:58:54.071Z,26.90
2022-09-15T21:01:24.187Z,26.88
2022-09-15T21:03:50.848Z,26.87
2022-09-15T21:06:20.657Z,26.88
2022-09-15T21:08:48.543Z,26.87
2022-09-15T21:11:16.965Z,26.87
2022-09-15T21:13:44.326Z,26.86
2022-09-15T21:16:16.486Z,26.86
2022-09-15T21:18:44.970Z,26.84
2022-09-15T21:21:13.342Z,26.85
2022-09-15T21:23:42.614Z,26.84
2022-09-15T21:26:20.899Z,26.83
2022-09-15T21:28:47.841Z,26.84
2022-09-15T21:31:16.965Z,26.83
2022-09-15T21:33:45.196Z,26.83
2022-09-15T21:36:17.406Z,26.83
2022-09-15T21:38:44.839Z,26.82
2022-09-15T21:41:13.873Z,26.82
2022-09-15T21:43:42.160Z,26.80
2022-09-15T21:46:13.170Z,26.81
2022-09-15T21:48:40.658Z,26.81
2022-09-15T21:51:08.476Z,26.80
2022-09-15T21:53:35.039Z,26.78
2022-09-15T21:56:03.868Z,26.78
2022-09-15T21:58:38.937Z,26.78
2022-09-15T22:01:11.821Z,26.77
2022-09-15T22:03:42.057Z,26.77
2022-09-15T22:06:09.504Z,26.76
2022-09-15T22:08:36.180Z,26.76
2022-09-15T22:11:03.063Z,26.74
2022-09-15T22:13:29.638Z,26.74
2022-09-15T22:16:04.621Z,26.74
2022-09-15T22:18:31.521Z,26.74
2022-09-15T22:21:11.192Z,26.71
2022-09-15T22:23:38.308Z,26.73
2022-09-15T22:26:07.758Z,26.72
2022-09-15T22:28:34.294Z,26.70
2022-09-15T22:31:02.761Z,26.71
2022-09-15T22:33:29.723Z,26.70
2022-09-15T22:35:57.169Z,26.70
2022-09-15T22:38:26.713Z,26.69
2022-09-15T22:40:53.260Z,26.69
2022-09-15T22:43:20.106Z,26.67
2022-09-15T22:45:46.592Z,26.67
2022-09-15T22:48:13.117Z,26.67
2022-09-15T22:50:39.675Z,26.67
2022-09-15T22:53:06.170Z,26.66
2022-09-15T22:55:32.906Z,26.66
2022-09-15T22:57:59.339Z,26.64
2022-09-15T23:00:26.199Z,26.64
2022-09-15T23:02:52.692Z,26.64
2022-09-15T23:05:19.213Z,26.62
2022-09-15T23:07:45.662Z,26.63
2022-09-15T23:10:12.168Z,26.63
2022-09-15T23:12:38.845Z,26.62
2022-09-15T23:15:06.599Z,26.62
2022-09-15T23:17:34.565Z,26.61
2022-09-15T23:20:01.740Z,26.60
2022-09-15T23:22:28.244Z,26.59
2022-09-15T23:24:54.879Z,26.59
2022-09-15T23:27:21.318Z,26.57
2022-09-15T23:29:55.408Z,26.57
2022-09-15T23:32:21.936Z,26.56
2022-09-15T23:34:49.142Z,26.57
2022-09-15T23:37:15.764Z,26.55
2022-09-15T23:39:42.566Z,26.55
2022-09-15T23:42:09.039Z,26.55
2022-09-15T23:44:35.479Z,26.54
2022-09-15T23:47:02.101Z,26.54
2022-09-15T23:49:28.732Z,26.53
2022-09-15T23:51:55.192Z,26.52
2022-09-15T23:54:21.652Z,26.52
2022-09-15T23:56:48.154Z,26.51
2022-09-15T23:59:14.697Z,26.51
